sensor_id;sensor_type;location;lat;lon;timestamp;temperature;humidity
16732;DHT22;8484;50.904;9.192;2023-04-19T00:02:22;9.40;99.90
16732;DHT22;8484;50.904;9.192;2023-04-19T00:04:49;9.50;99.90
16732;DHT22;8484;50.904;9.192;2023-04-19T00:07:17;9.30;99.90
16732;DHT22;8484;50.904;9.192;2023-04-19T00:09:44;9.40;99.90
16732;DHT22;8484;50.904;9.192;2023-04-19T00:12:11;9.30;99.90
16732;DHT22;8484;50.904;9.192;2023-04-19T00:14:38;9.30;99.90
16732;DHT22;8484;50.904;9.192;2023-04-19T00:17:05;9.40;99.90
16732;DHT22;8484;50.904;9.192;2023-04-19T00:19:33;9.40;99.90
16732;DHT22;8484;50.904;9.192;2023-04-19T00:22:00;9.40;99.90
16732;DHT22;8484;50.904;9.192;2023-04-19T00:24:27;9.40;99.90
16732;DHT22;8484;50.904;9.192;2023-04-19T00:26:54;9.30;99.90
16732;DHT22;8484;50.904;9.192;2023-04-19T00:29:21;9.40;99.90
16732;DHT22;8484;50.904;9.192;2023-04-19T00:31:48;9.50;99.90
16732;DHT22;8484;50.904;9.192;2023-04-19T00:34:15;9.40;99.90
16732;DHT22;8484;50.904;9.192;2023-04-19T00:36:43;9.40;99.90
16732;DHT22;8484;50.904;9.192;2023-04-19T00:39:10;9.40;99.90
16732;DHT22;8484;50.904;9.192;2023-04-19T00:41:38;9.40;99.90
16732;DHT22;8484;50.904;9.192;2023-04-19T00:44:05;9.50;99.90
16732;DHT22;8484;50.904;9.192;2023-04-19T00:46:31;9.50;99.90
16732;DHT22;8484;50.904;9.192;2023-04-19T00:48:58;9.60;99.90
16732;DHT22;8484;50.904;9.192;2023-04-19T00:51:25;9.50;99.90
16732;DHT22;8484;50.904;9.192;2023-04-19T00:53:54;9.60;99.90
16732;DHT22;8484;50.904;9.192;2023-04-19T00:56:22;9.70;99.90
16732;DHT22;8484;50.904;9.192;2023-04-19T00:58:49;9.60;99.90
16732;DHT22;8484;50.904;9.192;2023-04-19T01:01:16;9.50;99.90
16732;DHT22;8484;50.904;9.192;2023-04-19T01:03:45;9.60;99.90
16732;DHT22;8484;50.904;9.192;2023-04-19T01:06:13;9.50;99.90
16732;DHT22;8484;50.904;9.192;2023-04-19T01:08:40;9.50;99.90
16732;DHT22;8484;50.904;9.192;2023-04-19T01:11:08;9.50;99.90
16732;DHT22;8484;50.904;9.192;2023-04-19T01:13:34;9.40;99.90
16732;DHT22;8484;50.904;9.192;2023-04-19T01:16:01;9.40;99.90
16732;DHT22;8484;50.904;9.192;2023-04-19T01:18:29;9.40;99.90
16732;DHT22;8484;50.904;9.192;2023-04-19T01:21:01;9.50;99.90
16732;DHT22;8484;50.904;9.192;2023-04-19T01:23:30;9.50;99.90
16732;DHT22;8484;50.904;9.192;2023-04-19T01:25:57;9.50;99.90
16732;DHT22;8484;50.904;9.192;2023-04-19T01:28:25;9.50;99.90
16732;DHT22;8484;50.904;9.192;2023-04-19T01:30:52;9.50;99.90
16732;DHT22;8484;50.904;9.192;2023-04-19T01:33:19;9.40;99.90
16732;DHT22;8484;50.904;9.192;2023-04-19T01:35:46;9.50;99.90
16732;DHT22;8484;50.904;9.192;2023-04-19T01:38:13;9.40;99.90
16732;DHT22;8484;50.904;9.192;2023-04-19T01:40:42;9.50;99.90
16732;DHT22;8484;50.904;9.192;2023-04-19T01:43:11;9.50;99.90
16732;DHT22;8484;50.904;9.192;2023-04-19T01:45:38;9.50;99.90
16732;DHT22;8484;50.904;9.192;2023-04-19T01:48:06;9.50;99.90
16732;DHT22;8484;50.904;9.192;2023-04-19T01:50:33;9.60;99.90
16732;DHT22;8484;50.904;9.192;2023-04-19T01:53:00;9.50;99.90
16732;DHT22;8484;50.904;9.192;2023-04-19T01:55:29;9.60;99.90
16732;DHT22;8484;50.904;9.192;2023-04-19T01:57:57;9.60;99.90
16732;DHT22;8484;50.904;9.192;2023-04-19T02:00:24;9.50;99.90
16732;DHT22;8484;50.904;9.192;2023-04-19T02:02:51;9.60;99.90
16732;DHT22;8484;50.904;9.192;2023-04-19T02:05:18;9.60;99.90
16732;DHT22;8484;50.904;9.192;2023-04-19T02:07:45;9.50;99.90
16732;DHT22;8484;50.904;9.192;2023-04-19T02:10:12;9.50;99.90
16732;DHT22;8484;50.904;9.192;2023-04-19T02:12:39;9.60;99.90
16732;DHT22;8484;50.904;9.192;2023-04-19T02:15:09;9.60;99.90
16732;DHT22;8484;50.904;9.192;2023-04-19T02:17:36;9.50;99.90
16732;DHT22;8484;50.904;9.192;2023-04-19T02:20:04;9.60;99.90
16732;DHT22;8484;50.904;9.192;2023-04-19T02:22:32;9.60;99.90
16732;DHT22;8484;50.904;9.192;2023-04-19T02:24:59;9.50;99.90
16732;DHT22;8484;50.904;9.192;2023-04-19T02:27:26;9.60;99.90
16732;DHT22;8484;50.904;9.192;2023-04-19T02:29:53;9.60;99.90
16732;DHT22;8484;50.904;9.192;2023-04-19T02:32:22;9.60;99.90
16732;DHT22;8484;50.904;9.192;2023-04-19T02:34:49;9.60;99.90
16732;DHT22;8484;50.904;9.192;2023-04-19T02:37:16;9.60;99.90
16732;DHT22;8484;50.904;9.192;2023-04-19T02:39:43;9.50;99.90
16732;DHT22;8484;50.904;9.192;2023-04-19T02:42:10;9.50;99.90
16732;DHT22;8484;50.904;9.192;2023-04-19T02:44:37;9.50;99.90
16732;DHT22;8484;50.904;9.192;2023-04-19T02:47:04;9.50;99.90
16732;DHT22;8484;50.904;9.192;2023-04-19T02:49:35;9.50;99.90
16732;DHT22;8484;50.904;9.192;2023-04-19T02:52:06;9.50;99.90
16732;DHT22;8484;50.904;9.192;2023-04-19T02:54:33;9.50;99.90
16732;DHT22;8484;50.904;9.192;2023-04-19T02:57:00;9.50;99.90
16732;DHT22;8484;50.904;9.192;2023-04-19T02:59:27;9.50;99.90
16732;DHT22;8484;50.904;9.192;2023-04-19T03:01:56;9.50;99.90
16732;DHT22;8484;50.904;9.192;2023-04-19T03:04:23;9.50;99.90
16732;DHT22;8484;50.904;9.192;2023-04-19T03:06:51;9.40;99.90
16732;DHT22;8484;50.904;9.192;2023-04-19T03:09:18;9.40;99.90
16732;DHT22;8484;50.904;9.192;2023-04-19T03:11:45;9.40;99.90
16732;DHT22;8484;50.904;9.192;2023-04-19T03:14:13;9.40;99.90
16732;DHT22;8484;50.904;9.192;2023-04-19T03:16:40;9.40;99.90
16732;DHT22;8484;50.904;9.192;2023-04-19T03:19:07;9.40;99.90
16732;DHT22;8484;50.904;9.192;2023-04-19T03:21:33;9.40;99.90
16732;DHT22;8484;50.904;9.192;2023-04-19T03:24:02;9.30;99.90
16732;DHT22;8484;50.904;9.192;2023-04-19T03:26:29;9.30;99.90
16732;DHT22;8484;50.904;9.192;2023-04-19T03:28:56;9.30;99.90
16732;DHT22;8484;50.904;9.192;2023-04-19T03:31:23;9.40;99.90
16732;DHT22;8484;50.904;9.192;2023-04-19T03:33:50;9.30;99.90
16732;DHT22;8484;50.904;9.192;2023-04-19T03:36:17;9.30;99.90
16732;DHT22;8484;50.904;9.192;2023-04-19T03:38:44;9.20;99.90
16732;DHT22;8484;50.904;9.192;2023-04-19T03:41:19;9.30;99.90
16732;DHT22;8484;50.904;9.192;2023-04-19T03:43:46;9.20;99.90
16732;DHT22;8484;50.904;9.192;2023-04-19T03:46:14;9.30;99.90
16732;DHT22;8484;50.904;9.192;2023-04-19T03:48:41;9.20;99.90
16732;DHT22;8484;50.904;9.192;2023-04-19T03:51:07;9.10;99.90
16732;DHT22;8484;50.904;9.192;2023-04-19T03:53:35;9.20;99.90
16732;DHT22;8484;50.904;9.192;2023-04-19T03:56:02;9.20;99.90
16732;DHT22;8484;50.904;9.192;2023-04-19T03:58:30;9.20;99.90
16732;DHT22;8484;50.904;9.192;2023-04-19T04:00:57;9.00;99.90
16732;DHT22;8484;50.904;9.192;2023-04-19T04:03:25;9.00;99.90
16732;DHT22;8484;50.904;9.192;2023-04-19T04:05:52;9.00;99.90
16732;DHT22;8484;50.904;9.192;2023-04-19T04:08:19;8.90;99.90
16732;DHT22;8484;50.904;9.192;2023-04-19T04:10:46;9.00;99.90
16732;DHT22;8484;50.904;9.192;2023-04-19T04:13:13;9.00;99.90
16732;DHT22;8484;50.904;9.192;2023-04-19T04:15:41;8.90;99.90
16732;DHT22;8484;50.904;9.192;2023-04-19T04:18:08;8.90;99.90
16732;DHT22;8484;50.904;9.192;2023-04-19T04:20:35;8.80;99.90
16732;DHT22;8484;50.904;9.192;2023-04-19T04:23:02;8.90;99.90
16732;DHT22;8484;50.904;9.192;2023-04-19T04:25:29;8.80;99.90
16732;DHT22;8484;50.904;9.192;2023-04-19T04:27:57;8.90;99.90
16732;DHT22;8484;50.904;9.192;2023-04-19T04:30:24;8.90;99.90
16732;DHT22;8484;50.904;9.192;2023-04-19T04:32:54;8.90;99.90
16732;DHT22;8484;50.904;9.192;2023-04-19T04:35:23;8.80;99.90
16732;DHT22;8484;50.904;9.192;2023-04-19T04:37:50;8.90;99.90
16732;DHT22;8484;50.904;9.192;2023-04-19T04:40:18;8.70;99.90
16732;DHT22;8484;50.904;9.192;2023-04-19T04:42:45;8.80;99.90
16732;DHT22;8484;50.904;9.192;2023-04-19T04:45:12;8.70;99.90
16732;DHT22;8484;50.904;9.192;2023-04-19T04:47:42;8.70;99.90
16732;DHT22;8484;50.904;9.192;2023-04-19T04:50:12;8.70;99.90
16732;DHT22;8484;50.904;9.192;2023-04-19T04:52:39;8.60;99.90
16732;DHT22;8484;50.904;9.192;2023-04-19T04:55:06;8.70;99.90
16732;DHT22;8484;50.904;9.192;2023-04-19T04:57:33;8.60;99.90
16732;DHT22;8484;50.904;9.192;2023-04-19T05:00:00;8.60;99.90
16732;DHT22;8484;50.904;9.192;2023-04-19T05:02:29;8.50;99.90
16732;DHT22;8484;50.904;9.192;2023-04-19T05:04:56;8.60;99.90
16732;DHT22;8484;50.904;9.192;2023-04-19T05:07:24;8.50;99.90
16732;DHT22;8484;50.904;9.192;2023-04-19T05:09:51;8.50;99.90
16732;DHT22;8484;50.904;9.192;2023-04-19T05:12:18;8.50;99.90
16732;DHT22;8484;50.904;9.192;2023-04-19T05:14:45;8.50;99.90
16732;DHT22;8484;50.904;9.192;2023-04-19T05:17:12;8.40;99.90
16732;DHT22;8484;50.904;9.192;2023-04-19T05:19:38;8.40;99.90
16732;DHT22;8484;50.904;9.192;2023-04-19T05:22:05;8.30;99.90
16732;DHT22;8484;50.904;9.192;2023-04-19T05:24:34;8.30;99.90
16732;DHT22;8484;50.904;9.192;2023-04-19T05:27:03;8.30;99.90
16732;DHT22;8484;50.904;9.192;2023-04-19T05:29:30;8.30;99.90
16732;DHT22;8484;50.904;9.192;2023-04-19T05:31:57;8.30;99.90
16732;DHT22;8484;50.904;9.192;2023-04-19T05:34:24;8.30;99.90
16732;DHT22;8484;50.904;9.192;2023-04-19T05:36:51;8.40;99.90
16732;DHT22;8484;50.904;9.192;2023-04-19T05:39:18;8.40;99.90
16732;DHT22;8484;50.904;9.192;2023-04-19T05:41:46;8.40;99.90
16732;DHT22;8484;50.904;9.192;2023-04-19T05:44:13;8.40;99.90
16732;DHT22;8484;50.904;9.192;2023-04-19T05:46:40;8.40;99.90
16732;DHT22;8484;50.904;9.192;2023-04-19T05:49:07;8.40;99.90
16732;DHT22;8484;50.904;9.192;2023-04-19T05:51:34;8.40;99.90
16732;DHT22;8484;50.904;9.192;2023-04-19T05:54:01;8.40;99.90
16732;DHT22;8484;50.904;9.192;2023-04-19T05:56:28;8.50;99.90
16732;DHT22;8484;50.904;9.192;2023-04-19T05:58:56;8.30;99.90
16732;DHT22;8484;50.904;9.192;2023-04-19T06:01:25;8.40;99.90
16732;DHT22;8484;50.904;9.192;2023-04-19T06:03:52;8.40;99.90
16732;DHT22;8484;50.904;9.192;2023-04-19T06:06:20;8.30;99.90
16732;DHT22;8484;50.904;9.192;2023-04-19T06:08:48;8.40;99.90
16732;DHT22;8484;50.904;9.192;2023-04-19T06:11:15;8.40;99.90
16732;DHT22;8484;50.904;9.192;2023-04-19T06:13:42;8.50;99.90
16732;DHT22;8484;50.904;9.192;2023-04-19T06:16:10;8.50;99.90
16732;DHT22;8484;50.904;9.192;2023-04-19T06:18:37;8.50;99.90
16732;DHT22;8484;50.904;9.192;2023-04-19T06:21:05;8.70;99.90
16732;DHT22;8484;50.904;9.192;2023-04-19T06:23:32;8.80;99.90
16732;DHT22;8484;50.904;9.192;2023-04-19T06:25:59;8.70;99.90
16732;DHT22;8484;50.904;9.192;2023-04-19T06:28:26;8.60;99.90
16732;DHT22;8484;50.904;9.192;2023-04-19T06:30:53;8.60;99.90
16732;DHT22;8484;50.904;9.192;2023-04-19T06:33:21;8.70;99.90
16732;DHT22;8484;50.904;9.192;2023-04-19T06:35:49;8.70;99.90
16732;DHT22;8484;50.904;9.192;2023-04-19T06:38:16;8.80;99.90
16732;DHT22;8484;50.904;9.192;2023-04-19T06:40:42;8.70;99.90
16732;DHT22;8484;50.904;9.192;2023-04-19T06:43:11;8.60;99.90
16732;DHT22;8484;50.904;9.192;2023-04-19T06:45:37;8.50;99.90
16732;DHT22;8484;50.904;9.192;2023-04-19T06:48:05;8.70;99.90
16732;DHT22;8484;50.904;9.192;2023-04-19T06:50:33;8.70;99.90
16732;DHT22;8484;50.904;9.192;2023-04-19T06:53:00;8.70;99.90
16732;DHT22;8484;50.904;9.192;2023-04-19T06:55:27;8.60;99.90
16732;DHT22;8484;50.904;9.192;2023-04-19T06:57:54;8.80;99.90
16732;DHT22;8484;50.904;9.192;2023-04-19T07:00:21;8.90;99.90
16732;DHT22;8484;50.904;9.192;2023-04-19T07:02:48;9.10;99.90
16732;DHT22;8484;50.904;9.192;2023-04-19T07:05:17;9.20;99.90
16732;DHT22;8484;50.904;9.192;2023-04-19T07:07:46;9.40;99.90
16732;DHT22;8484;50.904;9.192;2023-04-19T07:10:13;9.40;99.90
16732;DHT22;8484;50.904;9.192;2023-04-19T07:12:40;9.50;99.90
16732;DHT22;8484;50.904;9.192;2023-04-19T07:15:08;9.50;99.90
16732;DHT22;8484;50.904;9.192;2023-04-19T07:17:36;9.50;99.90
16732;DHT22;8484;50.904;9.192;2023-04-19T07:20:04;9.60;99.90
16732;DHT22;8484;50.904;9.192;2023-04-19T07:22:32;9.60;99.90
16732;DHT22;8484;50.904;9.192;2023-04-19T07:25:00;10.20;99.90
16732;DHT22;8484;50.904;9.192;2023-04-19T07:27:27;10.30;99.90
16732;DHT22;8484;50.904;9.192;2023-04-19T07:29:54;10.10;99.90
16732;DHT22;8484;50.904;9.192;2023-04-19T07:32:20;9.80;99.90
16732;DHT22;8484;50.904;9.192;2023-04-19T07:34:47;9.50;99.90
16732;DHT22;8484;50.904;9.192;2023-04-19T07:37:16;9.60;99.90
16732;DHT22;8484;50.904;9.192;2023-04-19T07:39:43;9.70;99.90
16732;DHT22;8484;50.904;9.192;2023-04-19T07:42:11;9.90;99.90
16732;DHT22;8484;50.904;9.192;2023-04-19T07:44:38;10.10;99.90
16732;DHT22;8484;50.904;9.192;2023-04-19T07:47:05;10.10;99.90
16732;DHT22;8484;50.904;9.192;2023-04-19T07:49:32;10.00;99.90
16732;DHT22;8484;50.904;9.192;2023-04-19T07:51:59;9.90;99.90
16732;DHT22;8484;50.904;9.192;2023-04-19T07:54:27;10.00;99.90
16732;DHT22;8484;50.904;9.192;2023-04-19T07:56:54;9.90;99.90
16732;DHT22;8484;50.904;9.192;2023-04-19T07:59:23;10.30;99.90
16732;DHT22;8484;50.904;9.192;2023-04-19T08:01:50;10.30;99.90
16732;DHT22;8484;50.904;9.192;2023-04-19T08:04:17;10.60;99.90
16732;DHT22;8484;50.904;9.192;2023-04-19T08:06:44;10.70;99.90
16732;DHT22;8484;50.904;9.192;2023-04-19T08:09:11;10.80;99.90
16732;DHT22;8484;50.904;9.192;2023-04-19T08:11:38;10.90;99.90
16732;DHT22;8484;50.904;9.192;2023-04-19T08:14:05;11.00;99.90
16732;DHT22;8484;50.904;9.192;2023-04-19T08:16:35;11.20;99.90
16732;DHT22;8484;50.904;9.192;2023-04-19T08:19:02;11.10;99.90
16732;DHT22;8484;50.904;9.192;2023-04-19T08:21:29;11.50;99.90
16732;DHT22;8484;50.904;9.192;2023-04-19T08:23:57;12.10;99.90
16732;DHT22;8484;50.904;9.192;2023-04-19T08:26:23;12.00;99.90
16732;DHT22;8484;50.904;9.192;2023-04-19T08:28:51;12.20;99.90
16732;DHT22;8484;50.904;9.192;2023-04-19T08:31:18;12.20;99.90
16732;DHT22;8484;50.904;9.192;2023-04-19T08:33:48;12.60;99.90
16732;DHT22;8484;50.904;9.192;2023-04-19T08:36:15;12.90;99.90
16732;DHT22;8484;50.904;9.192;2023-04-19T08:38:42;13.30;99.90
16732;DHT22;8484;50.904;9.192;2023-04-19T08:41:10;13.10;99.90
16732;DHT22;8484;50.904;9.192;2023-04-19T08:43:38;13.20;99.90
16732;DHT22;8484;50.904;9.192;2023-04-19T08:46:06;13.20;99.90
16732;DHT22;8484;50.904;9.192;2023-04-19T08:48:33;13.80;99.90
16732;DHT22;8484;50.904;9.192;2023-04-19T08:51:03;13.60;99.90
16732;DHT22;8484;50.904;9.192;2023-04-19T08:53:30;13.40;99.90
16732;DHT22;8484;50.904;9.192;2023-04-19T08:56:00;13.30;99.90
16732;DHT22;8484;50.904;9.192;2023-04-19T08:58:27;13.20;99.90
16732;DHT22;8484;50.904;9.192;2023-04-19T09:00:57;13.60;99.90
16732;DHT22;8484;50.904;9.192;2023-04-19T09:03:24;13.30;99.90
16732;DHT22;8484;50.904;9.192;2023-04-19T09:05:51;13.40;99.90
16732;DHT22;8484;50.904;9.192;2023-04-19T09:08:25;13.10;99.90
16732;DHT22;8484;50.904;9.192;2023-04-19T09:10:53;13.20;99.90
16732;DHT22;8484;50.904;9.192;2023-04-19T09:13:21;13.50;99.90
16732;DHT22;8484;50.904;9.192;2023-04-19T09:15:48;13.80;99.90
16732;DHT22;8484;50.904;9.192;2023-04-19T09:18:16;14.40;99.50
16732;DHT22;8484;50.904;9.192;2023-04-19T09:20:45;15.20;99.60
16732;DHT22;8484;50.904;9.192;2023-04-19T09:23:13;15.90;98.20
16732;DHT22;8484;50.904;9.192;2023-04-19T09:25:52;15.20;98.20
16732;DHT22;8484;50.904;9.192;2023-04-19T09:28:19;15.00;98.80
16732;DHT22;8484;50.904;9.192;2023-04-19T09:30:46;15.20;99.10
16732;DHT22;8484;50.904;9.192;2023-04-19T09:33:34;15.60;98.00
16732;DHT22;8484;50.904;9.192;2023-04-19T09:36:01;15.80;98.70
16732;DHT22;8484;50.904;9.192;2023-04-19T09:38:28;15.60;97.50
16732;DHT22;8484;50.904;9.192;2023-04-19T09:41:07;15.70;97.00
16732;DHT22;8484;50.904;9.192;2023-04-19T09:43:35;16.10;96.40
16732;DHT22;8484;50.904;9.192;2023-04-19T09:46:01;16.30;96.40
16732;DHT22;8484;50.904;9.192;2023-04-19T09:48:30;16.90;95.30
16732;DHT22;8484;50.904;9.192;2023-04-19T09:50:58;16.50;95.00
16732;DHT22;8484;50.904;9.192;2023-04-19T09:53:26;16.00;96.00
16732;DHT22;8484;50.904;9.192;2023-04-19T09:55:53;16.50;94.10
16732;DHT22;8484;50.904;9.192;2023-04-19T09:58:22;16.50;95.30
16732;DHT22;8484;50.904;9.192;2023-04-19T10:00:49;16.20;94.90
16732;DHT22;8484;50.904;9.192;2023-04-19T10:03:18;16.40;93.90
16732;DHT22;8484;50.904;9.192;2023-04-19T10:05:46;16.50;95.00
16732;DHT22;8484;50.904;9.192;2023-04-19T10:08:13;17.00;94.50
16732;DHT22;8484;50.904;9.192;2023-04-19T10:10:42;16.60;94.80
16732;DHT22;8484;50.904;9.192;2023-04-19T10:13:11;16.70;94.50
16732;DHT22;8484;50.904;9.192;2023-04-19T10:15:41;16.20;95.50
16732;DHT22;8484;50.904;9.192;2023-04-19T10:18:09;16.80;93.20
16732;DHT22;8484;50.904;9.192;2023-04-19T10:20:40;16.50;93.40
16732;DHT22;8484;50.904;9.192;2023-04-19T10:23:10;16.90;92.80
16732;DHT22;8484;50.904;9.192;2023-04-19T10:25:37;16.70;92.60
16732;DHT22;8484;50.904;9.192;2023-04-19T10:28:04;16.70;93.30
16732;DHT22;8484;50.904;9.192;2023-04-19T10:30:31;17.00;92.60
16732;DHT22;8484;50.904;9.192;2023-04-19T10:33:00;16.70;90.60
16732;DHT22;8484;50.904;9.192;2023-04-19T10:35:34;16.00;92.80
16732;DHT22;8484;50.904;9.192;2023-04-19T10:38:04;16.40;94.00
16732;DHT22;8484;50.904;9.192;2023-04-19T10:40:54;17.20;92.10
16732;DHT22;8484;50.904;9.192;2023-04-19T10:43:22;16.90;93.20
16732;DHT22;8484;50.904;9.192;2023-04-19T10:45:50;17.10;93.30
16732;DHT22;8484;50.904;9.192;2023-04-19T10:48:38;17.60;91.90
16732;DHT22;8484;50.904;9.192;2023-04-19T10:51:12;16.50;91.10
16732;DHT22;8484;50.904;9.192;2023-04-19T10:53:48;16.40;87.00
16732;DHT22;8484;50.904;9.192;2023-04-19T10:56:16;16.70;91.10
16732;DHT22;8484;50.904;9.192;2023-04-19T10:59:12;17.60;90.20
16732;DHT22;8484;50.904;9.192;2023-04-19T11:01:47;17.10;90.70
16732;DHT22;8484;50.904;9.192;2023-04-19T11:04:16;17.10;87.30
16732;DHT22;8484;50.904;9.192;2023-04-19T11:06:58;17.60;89.30
16732;DHT22;8484;50.904;9.192;2023-04-19T11:09:28;17.20;90.20
16732;DHT22;8484;50.904;9.192;2023-04-19T11:11:58;17.30;90.90
16732;DHT22;8484;50.904;9.192;2023-04-19T11:14:29;17.50;87.40
16732;DHT22;8484;50.904;9.192;2023-04-19T11:16:58;17.60;86.80
16732;DHT22;8484;50.904;9.192;2023-04-19T11:19:26;18.00;81.40
16732;DHT22;8484;50.904;9.192;2023-04-19T11:21:57;18.10;83.50
16732;DHT22;8484;50.904;9.192;2023-04-19T11:24:25;18.30;83.50
16732;DHT22;8484;50.904;9.192;2023-04-19T11:26:55;18.90;85.80
16732;DHT22;8484;50.904;9.192;2023-04-19T11:29:22;17.90;84.30
16732;DHT22;8484;50.904;9.192;2023-04-19T11:31:49;18.20;84.30
16732;DHT22;8484;50.904;9.192;2023-04-19T11:34:16;18.20;84.70
16732;DHT22;8484;50.904;9.192;2023-04-19T11:36:51;18.40;82.90
16732;DHT22;8484;50.904;9.192;2023-04-19T11:39:18;17.80;85.90
16732;DHT22;8484;50.904;9.192;2023-04-19T11:41:46;17.50;84.70
16732;DHT22;8484;50.904;9.192;2023-04-19T11:44:13;16.90;85.50
16732;DHT22;8484;50.904;9.192;2023-04-19T11:46:41;17.70;88.90
16732;DHT22;8484;50.904;9.192;2023-04-19T11:49:08;18.10;85.40
16732;DHT22;8484;50.904;9.192;2023-04-19T11:51:39;17.40;85.50
16732;DHT22;8484;50.904;9.192;2023-04-19T11:54:12;17.80;82.30
16732;DHT22;8484;50.904;9.192;2023-04-19T11:57:05;18.00;84.10
16732;DHT22;8484;50.904;9.192;2023-04-19T11:59:33;17.70;81.20
16732;DHT22;8484;50.904;9.192;2023-04-19T12:02:07;17.90;83.40
16732;DHT22;8484;50.904;9.192;2023-04-19T12:04:35;18.70;82.30
16732;DHT22;8484;50.904;9.192;2023-04-19T12:07:03;19.20;82.40
16732;DHT22;8484;50.904;9.192;2023-04-19T12:09:34;19.40;81.40
16732;DHT22;8484;50.904;9.192;2023-04-19T12:12:06;18.60;78.90
16732;DHT22;8484;50.904;9.192;2023-04-19T12:14:33;18.50;80.00
16732;DHT22;8484;50.904;9.192;2023-04-19T12:17:08;18.30;78.40
16732;DHT22;8484;50.904;9.192;2023-04-19T12:19:36;18.60;76.80
16732;DHT22;8484;50.904;9.192;2023-04-19T12:22:10;18.80;78.00
16732;DHT22;8484;50.904;9.192;2023-04-19T12:24:39;19.00;77.90
16732;DHT22;8484;50.904;9.192;2023-04-19T12:27:08;18.60;75.90
16732;DHT22;8484;50.904;9.192;2023-04-19T12:29:36;18.50;75.90
16732;DHT22;8484;50.904;9.192;2023-04-19T12:32:04;18.10;77.90
16732;DHT22;8484;50.904;9.192;2023-04-19T12:34:31;17.90;77.60
16732;DHT22;8484;50.904;9.192;2023-04-19T12:36:58;18.30;77.90
16732;DHT22;8484;50.904;9.192;2023-04-19T12:39:25;18.30;76.50
16732;DHT22;8484;50.904;9.192;2023-04-19T12:41:54;18.00;80.50
16732;DHT22;8484;50.904;9.192;2023-04-19T12:44:22;17.90;78.90
16732;DHT22;8484;50.904;9.192;2023-04-19T12:46:49;17.90;77.50
16732;DHT22;8484;50.904;9.192;2023-04-19T12:49:17;17.70;78.90
16732;DHT22;8484;50.904;9.192;2023-04-19T12:51:44;18.30;80.30
16732;DHT22;8484;50.904;9.192;2023-04-19T12:54:12;18.60;79.20
16732;DHT22;8484;50.904;9.192;2023-04-19T12:56:39;18.10;79.50
16732;DHT22;8484;50.904;9.192;2023-04-19T12:59:07;17.90;79.40
16732;DHT22;8484;50.904;9.192;2023-04-19T13:01:34;17.50;80.60
16732;DHT22;8484;50.904;9.192;2023-04-19T13:04:01;17.50;78.30
16732;DHT22;8484;50.904;9.192;2023-04-19T13:06:28;17.10;78.90
16732;DHT22;8484;50.904;9.192;2023-04-19T13:08:55;17.40;78.50
16732;DHT22;8484;50.904;9.192;2023-04-19T13:11:22;17.40;80.80
16732;DHT22;8484;50.904;9.192;2023-04-19T13:13:50;17.00;80.60
16732;DHT22;8484;50.904;9.192;2023-04-19T13:16:19;17.10;79.90
16732;DHT22;8484;50.904;9.192;2023-04-19T13:18:46;16.80;80.90
16732;DHT22;8484;50.904;9.192;2023-04-19T13:21:13;16.90;79.20
16732;DHT22;8484;50.904;9.192;2023-04-19T13:23:42;16.90;78.40
16732;DHT22;8484;50.904;9.192;2023-04-19T13:26:09;17.40;75.60
16732;DHT22;8484;50.904;9.192;2023-04-19T13:28:36;17.30;78.00
16732;DHT22;8484;50.904;9.192;2023-04-19T13:31:04;16.80;81.30
16732;DHT22;8484;50.904;9.192;2023-04-19T13:33:35;16.60;79.00
16732;DHT22;8484;50.904;9.192;2023-04-19T13:36:02;17.20;76.90
16732;DHT22;8484;50.904;9.192;2023-04-19T13:38:29;17.20;74.10
16732;DHT22;8484;50.904;9.192;2023-04-19T13:40:56;17.20;79.30
16732;DHT22;8484;50.904;9.192;2023-04-19T13:43:23;16.80;76.60
16732;DHT22;8484;50.904;9.192;2023-04-19T13:45:50;17.20;75.80
16732;DHT22;8484;50.904;9.192;2023-04-19T13:48:17;17.50;74.90
16732;DHT22;8484;50.904;9.192;2023-04-19T13:50:45;16.80;74.60
16732;DHT22;8484;50.904;9.192;2023-04-19T13:53:12;16.30;75.50
16732;DHT22;8484;50.904;9.192;2023-04-19T13:55:39;16.20;79.20
16732;DHT22;8484;50.904;9.192;2023-04-19T13:58:06;16.70;74.50
16732;DHT22;8484;50.904;9.192;2023-04-19T14:00:33;16.00;77.70
16732;DHT22;8484;50.904;9.192;2023-04-19T14:03:00;16.00;77.90
16732;DHT22;8484;50.904;9.192;2023-04-19T14:05:27;15.60;77.80
16732;DHT22;8484;50.904;9.192;2023-04-19T14:07:55;15.80;78.80
16732;DHT22;8484;50.904;9.192;2023-04-19T14:10:22;15.80;78.40
16732;DHT22;8484;50.904;9.192;2023-04-19T14:12:50;15.50;77.00
16732;DHT22;8484;50.904;9.192;2023-04-19T14:15:17;15.50;74.90
16732;DHT22;8484;50.904;9.192;2023-04-19T14:17:44;15.90;75.60
16732;DHT22;8484;50.904;9.192;2023-04-19T14:20:11;15.50;74.60
16732;DHT22;8484;50.904;9.192;2023-04-19T14:22:38;15.80;71.40
16732;DHT22;8484;50.904;9.192;2023-04-19T14:25:08;15.80;71.80
16732;DHT22;8484;50.904;9.192;2023-04-19T14:27:37;15.60;74.30
16732;DHT22;8484;50.904;9.192;2023-04-19T14:30:05;14.80;77.10
16732;DHT22;8484;50.904;9.192;2023-04-19T14:32:32;14.80;77.20
16732;DHT22;8484;50.904;9.192;2023-04-19T14:34:59;15.10;76.10
16732;DHT22;8484;50.904;9.192;2023-04-19T14:37:27;15.70;72.30
16732;DHT22;8484;50.904;9.192;2023-04-19T14:39:54;15.70;74.70
16732;DHT22;8484;50.904;9.192;2023-04-19T14:42:22;16.00;70.00
16732;DHT22;8484;50.904;9.192;2023-04-19T14:44:50;15.60;70.90
16732;DHT22;8484;50.904;9.192;2023-04-19T14:47:18;15.70;70.80
16732;DHT22;8484;50.904;9.192;2023-04-19T14:49:46;15.50;72.00
16732;DHT22;8484;50.904;9.192;2023-04-19T14:52:13;15.20;72.50
16732;DHT22;8484;50.904;9.192;2023-04-19T14:54:41;15.20;74.70
16732;DHT22;8484;50.904;9.192;2023-04-19T14:57:08;15.00;75.10
16732;DHT22;8484;50.904;9.192;2023-04-19T14:59:38;15.30;72.90
16732;DHT22;8484;50.904;9.192;2023-04-19T15:02:07;15.50;72.90
16732;DHT22;8484;50.904;9.192;2023-04-19T15:04:35;15.80;73.50
16732;DHT22;8484;50.904;9.192;2023-04-19T15:07:02;15.20;73.80
16732;DHT22;8484;50.904;9.192;2023-04-19T15:09:29;15.20;74.00
16732;DHT22;8484;50.904;9.192;2023-04-19T15:11:56;14.80;76.30
16732;DHT22;8484;50.904;9.192;2023-04-19T15:14:23;14.20;75.40
16732;DHT22;8484;50.904;9.192;2023-04-19T15:16:52;14.20;75.30
16732;DHT22;8484;50.904;9.192;2023-04-19T15:19:18;14.10;74.50
16732;DHT22;8484;50.904;9.192;2023-04-19T15:21:45;14.30;73.40
16732;DHT22;8484;50.904;9.192;2023-04-19T15:24:12;13.70;77.90
16732;DHT22;8484;50.904;9.192;2023-04-19T15:26:39;14.00;78.40
16732;DHT22;8484;50.904;9.192;2023-04-19T15:33:12;13.80;76.90
16732;DHT22;8484;50.904;9.192;2023-04-19T15:35:41;14.70;75.00
16732;DHT22;8484;50.904;9.192;2023-04-19T15:38:08;14.90;73.30
16732;DHT22;8484;50.904;9.192;2023-04-19T15:40:35;14.80;75.00
16732;DHT22;8484;50.904;9.192;2023-04-19T15:43:06;14.50;72.70
16732;DHT22;8484;50.904;9.192;2023-04-19T15:45:33;14.20;72.90
16732;DHT22;8484;50.904;9.192;2023-04-19T15:48:00;13.80;74.20
16732;DHT22;8484;50.904;9.192;2023-04-19T15:50:29;13.80;75.10
16732;DHT22;8484;50.904;9.192;2023-04-19T15:52:56;13.70;76.10
16732;DHT22;8484;50.904;9.192;2023-04-19T15:55:22;13.70;76.50
16732;DHT22;8484;50.904;9.192;2023-04-19T15:57:49;13.70;77.10
16732;DHT22;8484;50.904;9.192;2023-04-19T16:00:17;14.20;77.90
16732;DHT22;8484;50.904;9.192;2023-04-19T16:02:44;14.60;75.40